Time;durP1;ratioP1;P1;durP2;ratioP2;P2;SDS_P1;SDS_P2;PMS_P1;PMS_P2;Temp;Humidity;BMP_temperature;BMP_pressure;BME280_temperature;BME280_humidity;BME280_pressure;Samples;Min_cycle;Max_cycle;Signal;HPM_P1;HPM_P2
2022/11/08 00:01:41;;;;;;;10.93;3.38;;;;;;;11.43;94.35;100886.75;5084750;28;20904;-58
2022/11/08 00:04:10;;;;;;;9.63;3.22;;;;;;;11.39;94.06;100880.94;5086214;28;20074;-57
2022/11/08 00:14:48;;;;;;;10.90;3.40;;;;;;;11.28;94.18;100884.78;5085119;28;20496;-59
2022/11/08 00:17:15;;;;;;;9.70;3.00;;;;;;;11.25;94.79;100884.28;5086037;28;20028;-56
2022/11/08 00:19:41;;;;;;;13.60;3.42;;;;;;;11.24;95.04;100882.59;5086773;28;20519;-56
2022/11/08 00:22:07;;;;;;;13.80;3.60;;;;;;;11.23;95.39;100876.47;5085757;28;20123;-57
2022/11/08 00:24:33;;;;;;;11.13;3.20;;;;;;;11.21;95.15;100873.16;5084512;28;20106;-56
2022/11/08 00:26:59;;;;;;;12.43;3.00;;;;;;;11.19;95.25;100882.28;5086053;28;20040;-57
2022/11/08 00:29:25;;;;;;;10.98;3.17;;;;;;;11.15;95.51;100868.50;5086232;28;20028;-57
2022/11/08 00:31:50;;;;;;;8.57;3.42;;;;;;;11.12;95.42;100874.97;5085554;28;20086;-58
2022/11/08 00:34:15;;;;;;;10.70;3.30;;;;;;;11.12;95.59;100877.63;5083228;28;20575;-59
2022/11/08 00:36:41;;;;;;;9.90;3.35;;;;;;;11.11;95.73;100873.28;5083068;28;20136;-59
2022/11/08 00:39:06;;;;;;;10.75;3.28;;;;;;;11.08;95.61;100873.63;5086782;28;20114;-56
2022/11/08 00:41:32;;;;;;;12.75;3.20;;;;;;;11.05;95.74;100868.66;5086665;28;20118;-57
2022/11/08 00:43:57;;;;;;;12.73;3.38;;;;;;;11.01;95.97;100867.34;5083172;28;20044;-57
2022/11/08 00:46:23;;;;;;;9.52;3.30;;;;;;;10.99;96.36;100856.03;5084398;28;20460;-57
2022/11/08 00:48:48;;;;;;;9.82;3.20;;;;;;;10.98;96.21;100867.66;5085765;28;20055;-59
2022/11/08 00:51:13;;;;;;;8.68;3.10;;;;;;;10.94;96.90;100866.31;5086194;28;20036;-58
2022/11/08 00:53:39;;;;;;;11.10;3.08;;;;;;;10.92;96.60;100865.66;5085703;28;20032;-57
2022/11/08 00:56:07;;;;;;;11.15;3.67;;;;;;;10.89;97.13;100854.38;5084299;28;20039;-57
2022/11/08 00:58:32;;;;;;;10.82;3.60;;;;;;;10.93;97.14;100859.34;5085438;28;20110;-58
2022/11/08 01:00:58;;;;;;;13.65;3.47;;;;;;;10.90;97.15;100855.19;5085134;28;20028;-60
2022/11/08 01:03:24;;;;;;;10.88;3.20;;;;;;;10.88;96.78;100850.06;5082400;28;20028;-57
2022/11/08 01:05:53;;;;;;;11.40;3.58;;;;;;;10.86;97.23;100838.78;5084618;28;20027;-56
2022/11/08 01:08:21;;;;;;;10.20;3.22;;;;;;;10.85;97.28;100837.13;5084823;28;20042;-57
2022/11/08 01:10:49;;;;;;;6.85;2.92;;;;;;;10.87;97.16;100839.63;5083709;28;20040;-57
2022/11/08 01:13:16;;;;;;;11.63;3.00;;;;;;;10.86;97.28;100838.78;5083742;28;20115;-58
2022/11/08 01:15:43;;;;;;;12.57;3.20;;;;;;;10.84;96.88;100848.72;5084906;28;20453;-58
2022/11/08 01:18:10;;;;;;;11.90;3.20;;;;;;;10.84;97.26;100846.06;5080161;28;20119;-58
2022/11/08 01:20:43;;;;;;;11.10;3.20;;;;;;;10.84;97.98;100846.06;5084598;28;20031;-57
2022/11/08 01:23:10;;;;;;;7.88;3.05;;;;;;;10.85;97.48;100850.38;5084771;28;20031;-58
2022/11/08 01:25:39;;;;;;;9.80;3.30;;;;;;;10.86;97.31;100833.47;5083605;28;20031;-57
2022/11/08 01:28:05;;;;;;;9.55;3.35;;;;;;;10.85;97.23;100836.31;5084072;28;20046;-59
2022/11/08 01:30:34;;;;;;;10.10;3.42;;;;;;;10.86;97.21;100833.47;5084820;28;20028;-59
2022/11/08 01:32:59;;;;;;;9.93;3.50;;;;;;;10.81;97.63;100822.50;5083651;28;20059;-57
2022/11/08 01:35:25;;;;;;;10.48;3.25;;;;;;;10.78;97.64;100825.50;5080943;28;20102;-57
2022/11/08 01:37:50;;;;;;;12.75;3.35;;;;;;;10.77;97.85;100823.84;5084054;28;20502;-57
2022/11/08 01:40:15;;;;;;;9.85;3.50;;;;;;;10.75;98.10;100826.66;5084346;28;20822;-57
2022/11/08 01:42:41;;;;;;;11.13;3.80;;;;;;;10.76;97.97;100822.19;5083278;28;20507;-59
2022/11/08 01:45:08;;;;;;;12.52;3.90;;;;;;;10.71;97.93;100819.19;5083836;28;20048;-59
2022/11/08 01:47:34;;;;;;;13.48;4.00;;;;;;;10.67;98.06;100796.63;5085549;28;20176;-57
2022/11/08 01:50:17;;;;;;;11.25;3.88;;;;;;;10.69;97.89;100802.59;5084251;28;20039;-59
2022/11/08 01:52:53;;;;;;;11.45;3.97;;;;;;;10.66;98.17;100800.28;5085032;28;20043;-58
2022/11/08 01:55:26;;;;;;;11.45;4.07;;;;;;;10.63;97.97;100786.38;5079055;28;20042;-59
2022/11/08 01:58:01;;;;;;;11.55;3.95;;;;;;;10.65;97.97;100790.69;5083383;28;20032;-59
2022/11/08 02:00:27;;;;;;;13.98;3.72;;;;;;;10.56;98.60;100788.00;5077244;28;20375;-58
2022/11/08 02:03:00;;;;;;;14.48;4.30;;;;;;;10.55;98.73;100786.34;5085086;28;20024;-59
2022/11/08 02:05:28;;;;;;;10.35;3.30;;;;;;;10.53;98.91;100784.84;5078317;28;20035;-57
2022/11/08 02:08:16;;;;;;;12.98;3.78;;;;;;;10.51;98.54;100781.53;5084267;28;20032;-58
2022/11/08 02:10:43;;;;;;;13.85;3.63;;;;;;;10.48;99.39;100772.91;5074092;28;20456;-57
2022/11/08 02:13:14;;;;;;;10.98;3.83;;;;;;;10.48;98.97;100764.97;5083938;28;20093;-59
2022/11/08 02:15:39;;;;;;;10.32;3.58;;;;;;;10.47;99.65;100765.94;5080376;28;20028;-57
2022/11/08 02:18:05;;;;;;;9.70;3.30;;;;;;;10.49;98.84;100761.31;5084452;28;20039;-57
2022/11/08 02:20:32;;;;;;;13.77;3.42;;;;;;;10.47;99.44;100765.13;5082292;28;20433;-59
2022/11/08 02:23:12;;;;;;;12.93;3.50;;;;;;;10.49;99.13;100768.44;5077947;28;20032;-59
2022/11/08 02:25:37;;;;;;;10.48;3.50;;;;;;;10.44;99.05;100760.13;5082026;28;20031;-57
2022/11/08 02:28:02;;;;;;;11.10;3.63;;;;;;;10.46;99.59;100752.88;5082641;28;20039;-59
2022/11/08 02:30:35;;;;;;;11.18;3.35;;;;;;;10.40;99.35;100749.00;5080545;28;20032;-56
2022/11/08 02:33:17;;;;;;;10.90;3.33;;;;;;;10.43;99.21;100748.72;5079209;28;20031;-58
2022/11/08 02:35:47;;;;;;;9.90;3.25;;;;;;;10.43;99.52;100742.56;5080633;28;20135;-58
2022/11/08 02:38:12;;;;;;;9.55;3.20;;;;;;;10.40;99.00;100733.09;5079987;28;20039;-57
2022/11/08 02:40:48;;;;;;;9.93;3.38;;;;;;;10.46;99.83;100735.13;5080081;28;20047;-57
2022/11/08 02:43:13;;;;;;;9.30;3.10;;;;;;;10.42;99.88;100732.94;5075239;28;20082;-59
2022/11/08 02:45:39;;;;;;;10.73;3.17;;;;;;;10.43;98.98;100731.97;5081921;28;20064;-57
2022/11/08 02:48:05;;;;;;;11.05;2.97;;;;;;;10.40;98.91;100726.97;5080259;28;20040;-59
2022/11/08 02:50:30;;;;;;;8.77;3.28;;;;;;;10.40;99.28;100721.66;5082189;28;20058;-59
2022/11/08 02:52:56;;;;;;;8.57;3.20;;;;;;;10.40;98.87;100719.03;5080479;28;20091;-59
2022/11/08 02:55:21;;;;;;;11.27;3.22;;;;;;;10.39;99.23;100717.34;5080586;28;20032;-57
2022/11/08 02:57:46;;;;;;;10.02;3.10;;;;;;;10.39;99.73;100709.38;5080148;28;20039;-57
2022/11/08 03:00:12;;;;;;;11.18;3.10;;;;;;;10.36;98.66;100705.25;5081151;28;20027;-58
2022/11/08 03:02:37;;;;;;;13.55;3.42;;;;;;;10.35;98.89;100693.81;5081841;28;20028;-59
2022/11/08 03:05:03;;;;;;;9.13;3.00;;;;;;;10.37;98.81;100696.31;5081110;28;20031;-57
2022/11/08 03:07:28;;;;;;;11.52;3.05;;;;;;;10.38;98.79;100687.38;5078361;28;20475;-58
2022/11/08 03:09:53;;;;;;;11.15;3.10;;;;;;;10.38;98.23;100691.81;5082233;28;20059;-58
2022/11/08 03:12:19;;;;;;;12.85;3.30;;;;;;;10.36;97.75;100679.56;5084178;28;20380;-59
2022/11/08 03:14:44;;;;;;;9.88;2.92;;;;;;;10.34;98.61;100676.25;5082874;28;20024;-58
2022/11/08 03:17:09;;;;;;;10.13;3.10;;;;;;;10.34;98.66;100678.06;5082993;28;20028;-59
2022/11/08 03:19:34;;;;;;;9.80;3.17;;;;;;;10.34;98.55;100676.25;5080479;28;20063;-57
2022/11/08 03:22:00;;;;;;;10.18;3.20;;;;;;;10.32;98.03;100667.63;5082932;28;20040;-57
2022/11/08 03:24:25;;;;;;;8.02;2.97;;;;;;;10.32;98.72;100672.94;5081645;28;20028;-57
2022/11/08 03:26:51;;;;;;;6.38;2.58;;;;;;;10.30;97.77;100669.63;5082805;28;20057;-59
2022/11/08 03:29:16;;;;;;;8.38;2.95;;;;;;;10.29;98.10;100661.84;5083834;28;20086;-58
2022/11/08 03:31:41;;;;;;;8.43;2.80;;;;;;;10.28;97.83;100655.72;5079078;28;20186;-57
2022/11/08 03:34:09;;;;;;;10.45;3.30;;;;;;;10.23;98.45;100648.25;5079737;28;20097;-58
2022/11/08 03:36:34;;;;;;;8.05;2.90;;;;;;;10.25;98.09;100644.63;5087506;28;20518;-57
2022/11/08 03:38:59;;;;;;;7.72;3.30;;;;;;;10.23;98.15;100642.13;5086446;28;20068;-57
2022/11/08 03:41:25;;;;;;;11.43;2.97;;;;;;;10.21;98.48;100630.84;5087608;28;20368;-57
2022/11/08 03:43:50;;;;;;;10.75;3.35;;;;;;;10.22;98.57;100621.94;5084524;28;20093;-57
2022/11/08 03:46:15;;;;;;;10.73;3.17;;;;;;;10.18;98.12;100623.25;5085295;28;20059;-57
2022/11/08 03:48:41;;;;;;;12.57;3.20;;;;;;;10.14;97.98;100611.31;5085233;28;20570;-56
2022/11/08 03:51:06;;;;;;;9.52;3.03;;;;;;;10.13;97.98;100609.66;5087243;28;20103;-57
2022/11/08 03:53:31;;;;;;;10.82;3.33;;;;;;;10.14;98.04;100612.13;5087507;28;20028;-56
2022/11/08 03:56:00;;;;;;;8.38;3.30;;;;;;;10.09;98.08;100602.03;5084194;28;20020;-56
2022/11/08 03:58:26;;;;;;;9.48;3.10;;;;;;;10.07;98.57;100601.34;5084259;28;20026;-59
2022/11/08 04:00:51;;;;;;;9.73;3.40;;;;;;;10.06;98.08;100605.00;5085213;28;20028;-57
2022/11/08 04:03:16;;;;;;;10.25;3.35;;;;;;;10.10;97.95;100600.22;5086283;28;20735;-59
2022/11/08 04:05:41;;;;;;;10.18;3.50;;;;;;;10.08;97.54;100600.34;5085559;28;20483;-57
2022/11/08 04:08:07;;;;;;;9.20;3.40;;;;;;;10.07;98.08;100595.25;5083883;28;20078;-56
2022/11/08 04:10:32;;;;;;;10.52;3.67;;;;;;;10.06;97.09;100586.47;5081554;28;20039;-58
2022/11/08 04:15:44;;;;;;;12.50;4.25;;;;;;;10.02;97.20;100579.81;5087511;28;20579;-58
2022/11/08 04:23:37;;;;;;;14.75;4.28;;;;;;;10.00;96.61;100563.28;5084567;28;20456;-56
2022/11/08 04:26:06;;;;;;;13.70;4.20;;;;;;;10.04;97.31;100564.63;5086503;28;20103;-58
2022/11/08 04:28:34;;;;;;;11.90;4.30;;;;;;;10.03;96.63;100572.72;5087003;28;20455;-56
2022/11/08 04:31:04;;;;;;;14.80;4.05;;;;;;;10.00;96.38;100555.31;5087253;28;20028;-57
2022/11/08 04:33:29;;;;;;;14.93;4.03;;;;;;;9.98;96.13;100559.97;5082954;28;20036;-58
2022/11/08 04:36:00;;;;;;;9.52;3.55;;;;;;;10.00;96.00;100552.69;5083580;28;20046;-58
2022/11/08 04:38:26;;;;;;;9.38;3.60;;;;;;;10.00;96.10;100550.03;5083796;28;20081;-58
2022/11/08 04:40:51;;;;;;;9.45;3.50;;;;;;;10.02;95.22;100542.75;5086393;28;20036;-57
2022/11/08 04:43:16;;;;;;;14.25;4.38;;;;;;;10.03;95.34;100547.06;5083389;28;20524;-59
2022/11/08 04:45:41;;;;;;;9.15;3.47;;;;;;;10.02;94.24;100548.03;5085629;28;20052;-58
2022/11/08 04:48:07;;;;;;;11.55;3.58;;;;;;;10.02;94.58;100544.56;5085534;28;20036;-57
2022/11/08 04:50:32;;;;;;;11.95;3.65;;;;;;;9.99;94.63;100540.44;5083455;28;20020;-58
2022/11/08 04:52:58;;;;;;;11.75;3.63;;;;;;;9.99;94.45;100529.84;5085271;28;20028;-56
2022/11/08 04:55:23;;;;;;;12.80;3.25;;;;;;;9.99;93.31;100513.94;5085570;28;20081;-57
2022/11/08 04:57:48;;;;;;;11.00;3.70;;;;;;;9.98;93.82;100520.25;5086577;28;20514;-57
2022/11/08 05:00:15;;;;;;;7.38;3.50;;;;;;;9.96;93.74;100519.56;5083094;28;20082;-57
2022/11/08 05:02:41;;;;;;;9.73;3.45;;;;;;;9.94;94.10;100521.56;5084295;28;20047;-59
2022/11/08 05:05:06;;;;;;;10.95;3.40;;;;;;;9.91;93.34;100522.72;5082865;28;20044;-58
2022/11/08 05:07:32;;;;;;;7.95;3.08;;;;;;;9.88;93.87;100517.75;5082440;28;20062;-57
2022/11/08 05:09:57;;;;;;;9.45;2.97;;;;;;;9.87;93.13;100509.97;5084361;28;20031;-56
2022/11/08 05:12:22;;;;;;;9.02;3.40;;;;;;;9.85;93.51;100506.63;5085386;28;20036;-58
2022/11/08 05:14:48;;;;;;;7.03;3.20;;;;;;;9.82;92.80;100503.34;5084620;28;20031;-57
2022/11/08 05:17:13;;;;;;;8.88;2.92;;;;;;;9.80;93.14;100505.34;5085907;28;20674;-59
2022/11/08 05:25:07;;;;;;;10.63;3.47;;;;;;;9.77;92.29;100510.13;5081920;28;20090;-58
2022/11/08 05:27:33;;;;;;;11.48;3.45;;;;;;;9.76;93.17;100501.34;5085363;28;20071;-57
2022/11/08 05:29:58;;;;;;;11.60;3.30;;;;;;;9.76;92.67;100498.69;5083802;28;20725;-57
2022/11/08 05:32:23;;;;;;;9.88;3.40;;;;;;;9.74;92.41;100495.41;5081068;28;20028;-58
2022/11/08 05:34:48;;;;;;;9.18;3.10;;;;;;;9.73;92.66;100493.75;5079822;28;20041;-57
2022/11/08 05:37:14;;;;;;;9.52;3.05;;;;;;;9.71;92.46;100490.41;5081861;28;20111;-59
2022/11/08 05:39:39;;;;;;;8.75;3.20;;;;;;;9.71;92.33;100482.47;5085270;28;20857;-58
2022/11/08 05:42:05;;;;;;;7.88;3.03;;;;;;;9.68;92.13;100491.56;5083641;28;20046;-57
2022/11/08 05:44:30;;;;;;;9.32;3.10;;;;;;;9.69;91.58;100492.41;5084350;28;20070;-57
2022/11/08 05:46:55;;;;;;;11.15;3.10;;;;;;;9.68;91.74;100490.75;5084435;28;20145;-60
2022/11/08 05:49:21;;;;;;;9.35;3.30;;;;;;;9.65;91.19;100491.91;5078881;28;20039;-58
2022/11/08 05:51:46;;;;;;;9.73;3.38;;;;;;;9.63;91.84;100482.47;5079740;28;20035;-58
2022/11/08 05:54:12;;;;;;;8.10;3.00;;;;;;;9.61;91.86;100479.16;5078493;28;20835;-60
2022/11/08 05:56:38;;;;;;;11.68;3.28;;;;;;;9.60;91.22;100481.00;5077915;28;20075;-57
2022/11/08 05:59:04;;;;;;;8.05;3.40;;;;;;;9.58;91.23;100484.78;5079287;28;20584;-57
2022/11/08 06:01:29;;;;;;;9.45;3.20;;;;;;;9.58;91.69;100476.84;5080026;28;20028;-58
2022/11/08 06:03:55;;;;;;;6.18;3.05;;;;;;;9.59;91.53;100470.56;5078577;28;20031;-57
2022/11/08 06:06:21;;;;;;;10.60;3.40;;;;;;;9.58;91.89;100479.50;5078182;28;20086;-59
2022/11/08 06:08:47;;;;;;;8.13;3.13;;;;;;;9.55;91.77;100465.59;5077153;28;20046;-58
2022/11/08 06:11:15;;;;;;;9.05;2.92;;;;;;;9.55;91.64;100464.75;5077218;28;20040;-59
2022/11/08 06:13:41;;;;;;;10.63;3.72;;;;;;;9.54;91.35;100473.69;5076991;28;20054;-57
2022/11/08 06:16:09;;;;;;;6.65;3.42;;;;;;;9.52;91.27;100470.41;5077807;28;20048;-59
2022/11/08 06:18:35;;;;;;;10.75;3.33;;;;;;;9.52;91.18;100476.50;5079355;28;20032;-59
2022/11/08 06:21:03;;;;;;;8.77;3.40;;;;;;;9.49;90.84;100471.56;5084278;28;20123;-59
2022/11/08 06:23:28;;;;;;;8.65;3.20;;;;;;;9.48;91.29;100469.88;5084064;28;20055;-58
2022/11/08 06:25:54;;;;;;;10.63;3.60;;;;;;;9.47;90.84;100468.22;5083947;28;20035;-60
2022/11/08 06:28:19;;;;;;;9.93;3.80;;;;;;;9.48;91.08;100469.88;5081675;28;20111;-56
2022/11/08 06:30:45;;;;;;;9.50;3.40;;;;;;;9.48;90.97;100475.16;5082889;28;20063;-58
2022/11/08 06:33:10;;;;;;;8.40;3.30;;;;;;;9.47;91.17;100468.22;5082269;28;20032;-59
2022/11/08 06:35:36;;;;;;;13.15;3.70;;;;;;;9.46;90.98;100474.50;5083476;28;20047;-59
2022/11/08 06:38:02;;;;;;;9.60;3.60;;;;;;;9.46;90.80;100477.16;5076896;28;20388;-59
2022/11/08 06:40:27;;;;;;;12.40;3.88;;;;;;;9.45;91.21;100478.16;5075719;28;20032;-59
2022/11/08 06:42:52;;;;;;;11.80;3.55;;;;;;;9.45;90.58;100480.78;5081748;28;20043;-62
2022/11/08 06:45:18;;;;;;;8.05;3.38;;;;;;;9.42;90.63;100470.53;5079273;28;20047;-61
2022/11/08 06:47:43;;;;;;;13.52;3.70;;;;;;;9.44;90.56;100473.00;5082240;28;20028;-58
2022/11/08 06:50:09;;;;;;;7.32;3.42;;;;;;;9.42;90.40;100471.38;5081115;28;20954;-61
2022/11/08 06:52:34;;;;;;;7.25;3.40;;;;;;;9.43;89.92;100474.84;5081844;28;20111;-57
2022/11/08 06:54:59;;;;;;;12.82;3.63;;;;;;;9.44;90.29;100481.78;5079801;28;20391;-57
2022/11/08 06:57:25;;;;;;;6.78;3.35;;;;;;;9.45;89.87;100480.78;5083205;28;20479;-57
2022/11/08 06:59:50;;;;;;;9.07;3.70;;;;;;;9.44;89.80;100480.94;5082584;28;20058;-58
2022/11/08 07:02:15;;;;;;;11.60;3.80;;;;;;;9.42;89.58;100471.38;5079102;28;20311;-57
2022/11/08 07:04:40;;;;;;;11.63;3.72;;;;;;;9.47;89.60;100484.09;5078600;28;20043;-57
2022/11/08 07:07:06;;;;;;;7.90;3.40;;;;;;;9.46;89.70;100477.16;5083405;28;20039;-57
2022/11/08 07:09:31;;;;;;;9.35;3.50;;;;;;;9.50;89.62;100491.72;5080231;28;20071;-57
2022/11/08 07:11:56;;;;;;;8.00;3.80;;;;;;;9.52;89.37;100489.75;5080479;28;20566;-58
2022/11/08 07:14:21;;;;;;;7.43;3.30;;;;;;;9.54;89.41;100494.88;5077366;28;20048;-58
2022/11/08 07:16:47;;;;;;;9.85;3.67;;;;;;;9.54;89.32;100494.88;5077543;28;20040;-58
2022/11/08 07:19:13;;;;;;;12.27;3.60;;;;;;;9.52;89.03;100492.38;5077095;28;20063;-58
2022/11/08 07:21:38;;;;;;;7.70;3.50;;;;;;;9.53;89.22;100494.03;5076491;28;20059;-60
2022/11/08 07:24:04;;;;;;;8.30;3.50;;;;;;;9.54;88.75;100494.88;5081905;28;20093;-60
2022/11/08 07:26:29;;;;;;;8.70;3.40;;;;;;;9.54;89.02;100473.69;5082940;28;20036;-57
2022/11/08 07:28:54;;;;;;;8.90;3.90;;;;;;;9.56;89.30;100477.00;5081219;28;20077;-57
2022/11/08 07:31:20;;;;;;;10.73;3.55;;;;;;;9.57;89.23;100491.88;5082965;28;20039;-57
2022/11/08 07:33:45;;;;;;;10.05;3.63;;;;;;;9.57;88.94;100483.13;5078802;28;20040;-58
2022/11/08 07:36:11;;;;;;;10.63;3.72;;;;;;;9.59;87.99;100486.44;5080351;28;20123;-58
2022/11/08 07:38:36;;;;;;;7.00;3.33;;;;;;;9.62;88.49;100481.63;5081865;28;20067;-58
2022/11/08 07:41:01;;;;;;;6.75;3.25;;;;;;;9.65;88.33;100475.19;5084012;28;20395;-58
2022/11/08 07:43:27;;;;;;;11.13;3.67;;;;;;;9.67;88.48;100481.16;5080721;28;20135;-59
2022/11/08 07:45:55;;;;;;;8.48;3.50;;;;;;;9.70;88.54;100478.19;5080593;28;20028;-57
2022/11/08 07:48:21;;;;;;;7.15;3.00;;;;;;;9.75;87.63;100485.63;5081909;28;20063;-60
2022/11/08 07:50:46;;;;;;;6.10;3.20;;;;;;;9.78;88.07;100475.53;5081904;28;20054;-57
2022/11/08 07:53:11;;;;;;;5.93;3.20;;;;;;;9.83;87.00;100467.91;5082167;28;20039;-59
2022/11/08 07:55:38;;;;;;;13.38;3.22;;;;;;;9.92;86.96;100465.28;5081075;28;20149;-57
2022/11/08 07:58:04;;;;;;;7.47;2.72;;;;;;;10.00;85.92;100475.03;5082429;28;20844;-58
2022/11/08 08:00:30;;;;;;;14.18;3.10;;;;;;;10.03;85.27;100467.59;5081743;28;20028;-57
2022/11/08 08:02:57;;;;;;;6.78;2.50;;;;;;;10.09;85.23;100466.94;5083897;28;20032;-57
2022/11/08 08:05:24;;;;;;;4.18;2.67;;;;;;;10.17;84.96;100467.91;5080999;28;20032;-57
2022/11/08 08:07:49;;;;;;;6.65;2.50;;;;;;;10.28;83.33;100464.91;5077841;28;20739;-59
2022/11/08 08:10:14;;;;;;;4.53;2.40;;;;;;;10.40;82.62;100467.19;5078240;28;20123;-60
2022/11/08 08:12:40;;;;;;;6.10;2.65;;;;;;;10.49;82.47;100468.84;5072019;28;20055;-58
2022/11/08 08:15:05;;;;;;;5.50;2.38;;;;;;;10.60;81.34;100472.94;5082321;28;20094;-58
2022/11/08 08:17:31;;;;;;;5.43;2.50;;;;;;;10.67;81.27;100465.16;5078982;28;20055;-57
2022/11/08 08:19:56;;;;;;;4.63;2.40;;;;;;;10.71;81.43;100464.63;5083660;28;20127;-58
2022/11/08 08:22:21;;;;;;;5.70;2.55;;;;;;;10.79;79.77;100474.38;5082399;28;20051;-58
2022/11/08 08:24:47;;;;;;;3.65;2.20;;;;;;;10.84;80.35;100485.31;5081263;28;20105;-61
2022/11/08 08:27:12;;;;;;;3.88;2.33;;;;;;;10.94;78.90;100478.97;5087329;28;20453;-60
2022/11/08 08:29:37;;;;;;;3.92;2.50;;;;;;;10.96;79.17;100484.94;5082317;28;20055;-61
2022/11/08 08:32:03;;;;;;;3.90;2.30;;;;;;;11.00;78.95;100494.22;5081103;28;20114;-58
2022/11/08 08:34:28;;;;;;;4.07;2.28;;;;;;;11.01;78.96;100498.50;5084293;28;20032;-59
2022/11/08 08:36:53;;;;;;;7.43;2.30;;;;;;;11.06;78.04;100512.09;5084832;28;20463;-58
2022/11/08 08:39:18;;;;;;;5.95;2.20;;;;;;;11.09;78.93;100509.06;5086138;28;20490;-59
2022/11/08 08:41:46;;;;;;;4.53;2.50;;;;;;;11.12;78.68;100503.44;5086111;28;20035;-58
2022/11/08 08:44:11;;;;;;;5.00;2.40;;;;;;;11.15;78.42;100487.16;5084190;28;20075;-60
2022/11/08 08:46:36;;;;;;;2.90;2.40;;;;;;;11.23;77.38;100482.78;5085248;28;20070;-60
2022/11/08 08:49:02;;;;;;;2.75;2.20;;;;;;;11.27;77.50;100478.81;5078366;28;20466;-59
2022/11/08 08:51:27;;;;;;;3.83;2.42;;;;;;;11.33;76.99;100472.78;5083308;28;20039;-59
2022/11/08 08:53:52;;;;;;;4.43;2.40;;;;;;;11.36;76.94;100477.75;5085749;28;20055;-59
2022/11/08 08:56:17;;;;;;;5.70;2.42;;;;;;;11.41;76.58;100482.53;5077055;28;20116;-60
2022/11/08 08:58:43;;;;;;;2.80;2.28;;;;;;;11.46;76.31;100474.03;5077668;28;20020;-61
2022/11/08 09:01:08;;;;;;;3.55;2.38;;;;;;;11.46;77.56;100466.06;5075769;28;20082;-60
2022/11/08 09:03:34;;;;;;;3.17;2.10;;;;;;;11.46;76.90;100460.75;5086090;28;20566;-59
2022/11/08 09:06:00;;;;;;;7.68;2.40;;;;;;;11.53;76.55;100467.00;5086856;28;20111;-59
2022/11/08 09:08:26;;;;;;;4.38;2.42;;;;;;;11.57;76.49;100458.53;5083475;28;20104;-59
2022/11/08 09:10:53;;;;;;;5.03;2.70;;;;;;;11.60;77.53;100451.22;5082562;28;20122;-59
2022/11/08 09:13:18;;;;;;;5.00;2.42;;;;;;;11.63;76.26;100456.16;5083550;28;20428;-58
2022/11/08 09:15:43;;;;;;;5.22;2.50;;;;;;;11.67;75.96;100463.59;5083924;28;20055;-61
2022/11/08 09:18:09;;;;;;;5.82;2.58;;;;;;;11.69;76.05;100476.69;5085034;28;20151;-59
2022/11/08 09:20:34;;;;;;;4.22;2.50;;;;;;;11.75;75.58;100475.97;5081905;28;20050;-59
2022/11/08 09:23:01;;;;;;;4.30;2.40;;;;;;;11.76;75.11;100456.41;5073175;28;20465;-58
2022/11/08 09:25:27;;;;;;;9.07;2.85;;;;;;;11.81;75.48;100463.81;5079925;28;20040;-60
2022/11/08 09:27:54;;;;;;;8.48;2.60;;;;;;;11.85;74.70;100459.81;5081367;28;20140;-60
2022/11/08 09:30:19;;;;;;;8.88;2.70;;;;;;;11.82;75.56;100446.88;5081790;28;20131;-60
2022/11/08 09:32:44;;;;;;;8.30;2.80;;;;;;;11.84;75.31;100456.31;5075597;28;20032;-59
2022/11/08 09:35:09;;;;;;;6.28;2.58;;;;;;;11.85;74.80;100454.50;5074987;28;20028;-60
2022/11/08 09:37:35;;;;;;;4.35;2.60;;;;;;;11.87;74.99;100463.09;5079232;28;20593;-58
2022/11/08 09:40:00;;;;;;;4.43;2.55;;;;;;;11.88;75.28;100463.94;5076794;28;20032;-61
2022/11/08 09:42:44;;;;;;;7.82;2.70;;;;;;;11.91;76.00;100453.78;5077184;28;20043;-60
2022/11/08 09:45:23;;;;;;;7.55;2.33;;;;;;;11.97;74.80;100452.22;5079295;28;20051;-60
2022/11/08 09:47:54;;;;;;;5.70;2.47;;;;;;;12.03;75.18;100451.50;5077457;28;20028;-59
2022/11/08 09:50:27;;;;;;;6.22;2.70;;;;;;;12.09;74.50;100453.47;5079474;28;20050;-61
2022/11/08 09:53:15;;;;;;;6.13;2.90;;;;;;;12.17;75.13;100463.19;5072323;28;20059;-59
2022/11/08 09:55:50;;;;;;;9.10;2.55;;;;;;;12.21;74.50;100490.25;5079439;28;20463;-59
2022/11/08 09:58:30;;;;;;;5.40;2.75;;;;;;;12.27;74.24;100472.72;5079592;28;20028;-59
2022/11/08 10:00:55;;;;;;;7.32;2.58;;;;;;;12.35;73.85;100475.31;5079612;28;20036;-58
2022/11/08 10:03:23;;;;;;;5.43;2.63;;;;;;;12.39;73.53;100463.31;5066556;28;20443;-60
2022/11/08 10:06:35;;;;;;;4.20;2.40;;;;;;;12.45;73.55;100469.72;5078528;28;20137;-59
2022/11/08 10:09:21;;;;;;;5.05;2.30;;;;;;;12.57;73.42;100476.25;5079189;28;20484;-59
2022/11/08 10:12:06;;;;;;;3.67;2.50;;;;;;;12.62;72.63;100473.03;5075646;28;20036;-59
2022/11/08 10:14:38;;;;;;;4.93;2.50;;;;;;;12.68;72.34;100469.63;5072780;28;20024;-59
2022/11/08 10:17:18;;;;;;;5.72;2.45;;;;;;;12.74;72.72;100492.81;5078931;28;20159;-59
2022/11/08 10:19:57;;;;;;;4.18;2.47;;;;;;;12.82;71.45;100483.13;5079602;28;20099;-59
2022/11/08 10:22:41;;;;;;;6.82;2.60;;;;;;;12.85;71.50;100486.22;5075212;28;20345;-59
2022/11/08 10:25:38;;;;;;;4.63;2.78;;;;;;;12.90;72.05;100488.31;5081299;28;20044;-61
2022/11/08 10:28:05;;;;;;;6.47;2.90;;;;;;;12.88;70.72;100485.03;5051071;28;20043;-61
2022/11/08 10:30:37;;;;;;;4.55;2.30;;;;;;;12.91;70.89;100484.66;5079792;28;20510;-58
2022/11/08 10:33:15;;;;;;;8.68;2.70;;;;;;;12.89;70.90;100492.00;5072253;28;20713;-59
2022/11/08 10:35:45;;;;;;;4.13;2.50;;;;;;;12.94;70.39;100489.63;5073538;28;20574;-59
2022/11/08 10:38:35;;;;;;;4.32;2.45;;;;;;;12.94;71.17;100494.09;5073742;28;20494;-60
2022/11/08 10:41:22;;;;;;;4.25;2.50;;;;;;;12.96;70.78;100492.91;5078099;28;20033;-61
2022/11/08 10:43:51;;;;;;;3.63;2.45;;;;;;;12.95;70.56;100485.94;5073739;28;20059;-59
2022/11/08 10:46:41;;;;;;;4.57;2.47;;;;;;;12.98;71.39;100495.38;5078580;28;20035;-61
2022/11/08 10:49:23;;;;;;;4.40;2.25;;;;;;;12.98;70.77;100485.56;5080523;28;20539;-58
2022/11/08 10:51:53;;;;;;;4.82;2.50;;;;;;;13.02;70.17;100497.50;5075667;28;20377;-60
2022/11/08 10:54:40;;;;;;;4.45;2.40;;;;;;;13.08;70.79;100487.09;5078189;28;20077;-58
2022/11/08 10:57:06;;;;;;;3.88;2.42;;;;;;;13.13;69.93;100492.69;5080303;28;20043;-58
2022/11/08 10:59:32;;;;;;;6.35;2.70;;;;;;;13.15;69.62;100485.34;5079439;28;20517;-61
2022/11/08 11:01:59;;;;;;;5.25;2.70;;;;;;;13.18;68.98;100474.34;5079222;28;20028;-60
2022/11/08 11:04:30;;;;;;;6.43;2.47;;;;;;;13.21;69.49;100489.91;5079561;28;20030;-61
2022/11/08 11:07:05;;;;;;;5.45;2.33;;;;;;;13.22;69.68;100486.25;5078094;28;20502;-63
2022/11/08 11:09:31;;;;;;;5.20;2.40;;;;;;;13.24;68.94;100462.94;5079006;28;20028;-62
2022/11/08 11:12:07;;;;;;;6.50;2.60;;;;;;;13.25;68.99;100469.91;5077050;28;20081;-60
2022/11/08 11:14:32;;;;;;;5.00;2.35;;;;;;;13.25;69.56;100450.44;5073735;28;20040;-60
2022/11/08 11:17:07;;;;;;;3.63;2.60;;;;;;;13.24;69.95;100440.78;5079616;28;20475;-59
2022/11/08 11:19:33;;;;;;;3.25;2.40;;;;;;;13.26;69.42;100460.91;5074740;28;20039;-61
2022/11/08 11:22:05;;;;;;;4.97;2.50;;;;;;;13.26;69.60;100454.72;5074341;28;20629;-59
2022/11/08 11:24:33;;;;;;;7.32;2.75;;;;;;;13.27;70.01;100441.25;5077579;28;20024;-59
2022/11/08 11:27:02;;;;;;;6.07;2.58;;;;;;;13.30;69.61;100442.69;5078918;28;20340;-57
2022/11/08 11:29:30;;;;;;;6.13;2.50;;;;;;;13.32;69.42;100422.84;5079380;28;20504;-57
2022/11/08 11:31:56;;;;;;;6.90;2.40;;;;;;;13.36;69.69;100411.84;5078879;28;20039;-58
2022/11/08 11:34:30;;;;;;;4.55;2.50;;;;;;;13.40;69.63;100427.25;5078700;28;20049;-60
2022/11/08 11:37:07;;;;;;;4.28;2.40;;;;;;;13.43;69.34;100434.84;5078629;28;20032;-58
2022/11/08 11:40:24;;;;;;;7.07;2.63;;;;;;;13.52;69.38;100438.22;5078344;28;20036;-59
2022/11/08 11:42:58;;;;;;;6.43;2.40;;;;;;;13.55;69.26;100437.84;5033298;28;20040;-58
2022/11/08 11:45:45;;;;;;;9.27;2.60;;;;;;;13.61;69.50;100430.13;5077070;28;20100;-58
2022/11/08 11:48:30;;;;;;;7.25;2.50;;;;;;;13.65;69.01;100436.69;5073207;28;20552;-58
2022/11/08 11:50:56;;;;;;;6.70;2.67;;;;;;;13.66;68.94;100419.72;5071298;28;20024;-57